Time,TemperatureF,DewpointF,PressureIn,WindDirection,WindDirectionDegrees,WindSpeedMPH,WindSpeedGustMPH,Humidity,HourlyPrecipIn,Conditions,Clouds,dailyrainin,SoftwareType,DateUTC
2013-02-20 00:00:00,42.6,42.4,29.61,WNW,300,0.0,6.0,99,0.00,,,0.72,meteohub,2013-02-20 05:00:00,
2013-02-20 00:05:00,42.6,42.4,29.61,WSW,238,0.0,4.0,99,0.00,,,0.00,meteohub,2013-02-20 05:05:00,
2013-02-20 00:11:00,42.4,42.3,29.61,WSW,242,0.0,3.0,99,0.00,,,0.00,meteohub,2013-02-20 05:11:00,
2013-02-20 00:16:00,42.4,42.3,29.61,SW,222,1.0,3.0,99,0.00,,,0.00,meteohub,2013-02-20 05:16:00,
2013-02-20 00:21:00,42.3,42.1,29.60,SSW,210,0.0,4.0,99,0.00,,,0.00,meteohub,2013-02-20 05:21:00,
2013-02-20 00:26:00,42.1,41.9,29.60,SW,236,0.0,4.0,99,0.00,,,0.00,meteohub,2013-02-20 05:26:00,
2013-02-20 00:31:00,41.9,41.7,29.60,SW,226,0.0,2.0,99,0.00,,,0.00,meteohub,2013-02-20 05:31:00,
2013-02-20 00:36:00,41.5,41.4,29.61,SW,225,4.0,4.0,99,0.00,,,0.00,meteohub,2013-02-20 05:36:00,
2013-02-20 00:41:00,41.0,40.5,29.61,SSW,201,1.0,6.0,98,0.00,,,0.00,meteohub,2013-02-20 05:41:00,
2013-02-20 00:46:00,40.8,40.6,29.62,SW,214,4.0,6.0,99,0.00,,,0.00,meteohub,2013-02-20 05:46:00,
2013-02-20 00:51:00,40.5,40.3,29.62,SSW,200,3.0,6.0,99,0.00,,,0.00,meteohub,2013-02-20 05:51:00,
2013-02-20 00:56:00,40.5,40.3,29.61,SW,233,0.0,5.0,99,0.00,,,0.00,meteohub,2013-02-20 05:56:00,
2013-02-20 01:01:00,40.6,40.5,29.62,SW,214,2.0,5.0,99,0.00,,,0.00,meteohub,2013-02-20 06:01:00,
2013-02-20 01:06:00,40.6,40.5,29.62,SSW,207,4.0,6.0,99,0.00,,,0.00,meteohub,2013-02-20 06:06:00,
2013-02-20 01:11:00,40.5,40.3,29.62,West,262,10.0,17.0,99,0.00,,,0.00,meteohub,2013-02-20 06:11:00,
2013-02-20 01:16:00,40.3,40.1,29.62,WSW,257,6.0,17.0,99,0.00,,,0.00,meteohub,2013-02-20 06:16:00,
2013-02-20 01:21:00,40.3,40.1,29.62,SW,222,9.0,17.0,99,0.00,,,0.00,meteohub,2013-02-20 06:21:00,
2013-02-20 01:26:00,40.1,39.6,29.62,West,274,6.0,14.0,98,0.00,,,0.00,meteohub,2013-02-20 06:26:00,
2013-02-20 01:31:00,39.9,39.4,29.62,West,268,6.0,14.0,98,0.00,,,0.00,meteohub,2013-02-20 06:31:00,
2013-02-20 01:36:00,39.7,39.2,29.62,WSW,242,3.0,14.0,98,0.00,,,0.00,meteohub,2013-02-20 06:36:00,
2013-02-20 01:41:00,39.7,39.2,29.62,West,260,3.0,10.0,98,0.00,,,0.00,meteohub,2013-02-20 06:41:00,
2013-02-20 01:46:00,39.6,39.0,29.62,West,274,3.0,9.0,98,0.00,,,0.00,meteohub,2013-02-20 06:46:00,
2013-02-20 01:51:00,39.6,38.8,29.62,West,280,4.0,9.0,97,0.00,,,0.00,meteohub,2013-02-20 06:51:00,
2013-02-20 01:56:00,39.4,38.3,29.62,WNW,284,6.0,9.0,96,0.00,,,0.00,meteohub,2013-02-20 06:56:00,
2013-02-20 02:01:00,39.4,38.3,29.62,WNW,294,5.0,10.0,96,0.00,,,0.00,meteohub,2013-02-20 07:01:00,
2013-02-20 02:06:00,39.0,37.8,29.62,SW,226,2.0,10.0,95,0.00,,,0.00,meteohub,2013-02-20 07:06:00,
2013-02-20 02:11:00,38.8,37.6,29.62,WSW,250,2.0,10.0,95,0.00,,,0.00,meteohub,2013-02-20 07:11:00,
2013-02-20 02:16:00,38.8,37.6,29.62,West,263,1.0,7.0,95,0.00,,,0.00,meteohub,2013-02-20 07:16:00,
2013-02-20 02:21:00,39.2,38.5,29.62,SW,232,1.0,7.0,97,0.00,,,0.00,meteohub,2013-02-20 07:21:00,
2013-02-20 02:26:00,39.0,37.9,29.62,WNW,288,2.0,7.0,96,0.00,,,0.00,meteohub,2013-02-20 07:26:00,
2013-02-20 02:31:00,38.7,37.6,29.62,SW,236,3.0,5.0,96,0.00,,,0.00,meteohub,2013-02-20 07:31:00,
2013-02-20 02:36:00,38.5,37.4,29.62,West,270,4.0,6.0,96,0.00,,,0.00,meteohub,2013-02-20 07:36:00,
2013-02-20 02:41:00,38.5,37.4,29.62,West,266,3.0,7.0,96,0.00,,,0.00,meteohub,2013-02-20 07:41:00,
2013-02-20 02:46:00,38.3,37.2,29.62,West,270,1.0,7.0,96,0.00,,,0.00,meteohub,2013-02-20 07:46:00,
2013-02-20 02:51:00,38.3,37.2,29.62,WNW,284,2.0,7.0,96,0.00,,,0.00,meteohub,2013-02-20 07:51:00,
2013-02-20 02:56:00,38.1,37.0,29.62,West,267,4.0,8.0,96,0.00,,,0.00,meteohub,2013-02-20 07:56:00,
2013-02-20 03:05:00,38.1,36.9,29.62,WNW,290,4.0,8.0,95,0.00,,,0.00,meteohub,2013-02-20 08:05:00,
2013-02-20 03:10:00,37.9,36.7,29.62,WSW,250,5.0,11.0,95,0.00,,,0.00,meteohub,2013-02-20 08:10:00,
2013-02-20 03:15:00,37.9,36.3,29.62,SSW,204,5.0,11.0,94,0.00,,,0.00,meteohub,2013-02-20 08:15:00,
2013-02-20 03:20:00,37.8,36.1,29.62,WSW,243,3.0,10.0,94,0.00,,,0.00,meteohub,2013-02-20 08:20:00,
2013-02-20 03:25:00,37.6,36.0,29.62,West,267,5.0,10.0,94,0.00,,,0.00,meteohub,2013-02-20 08:25:00,
2013-02-20 03:30:00,37.6,35.8,29.62,WSW,252,8.0,10.0,93,0.00,,,0.00,meteohub,2013-02-20 08:30:00,
2013-02-20 03:35:00,37.6,35.4,29.62,West,272,5.0,11.0,92,0.00,,,0.00,meteohub,2013-02-20 08:35:00,
2013-02-20 03:40:00,37.4,35.1,29.62,West,266,4.0,12.0,91,0.00,,,0.00,meteohub,2013-02-20 08:40:00,
2013-02-20 03:45:00,37.2,34.5,29.62,WSW,242,3.0,12.0,90,0.00,,,0.00,meteohub,2013-02-20 08:45:00,
2013-02-20 03:50:00,37.0,34.3,29.62,West,269,8.0,12.0,90,0.00,,,0.00,meteohub,2013-02-20 08:50:00,
2013-02-20 03:55:00,37.0,34.3,29.62,SW,232,2.0,10.0,90,0.00,,,0.00,meteohub,2013-02-20 08:55:00,
2013-02-20 04:00:00,36.9,34.0,29.62,West,276,0.0,10.0,89,0.00,,,0.00,meteohub,2013-02-20 09:00:00,
2013-02-20 04:05:00,36.9,34.0,29.62,WSW,252,5.0,12.0,89,0.00,,,0.00,meteohub,2013-02-20 09:05:00,
2013-02-20 04:10:00,36.9,34.0,29.62,WNW,302,6.0,12.0,89,0.00,,,0.00,meteohub,2013-02-20 09:10:00,
2013-02-20 04:15:00,36.7,33.8,29.63,WNW,291,6.0,12.0,89,0.00,,,0.00,meteohub,2013-02-20 09:15:00,
2013-02-20 04:20:00,36.9,34.0,29.63,NW,311,6.0,10.0,89,0.00,,,0.00,meteohub,2013-02-20 09:20:00,
2013-02-20 04:25:00,36.7,33.4,29.63,NW,308,6.0,14.0,88,0.00,,,0.00,meteohub,2013-02-20 09:25:00,
2013-02-20 04:30:00,36.3,32.2,29.63,WNW,302,8.0,14.0,85,0.00,,,0.00,meteohub,2013-02-20 09:30:00,
2013-02-20 04:35:00,36.0,29.8,29.64,NW,309,11.0,14.0,78,0.00,,,0.00,meteohub,2013-02-20 09:35:00,
2013-02-20 04:40:00,35.4,28.9,29.64,NW,312,10.0,19.0,77,0.00,,,0.00,meteohub,2013-02-20 09:40:00,
2013-02-20 04:45:00,35.2,28.4,29.64,WNW,301,10.0,19.0,76,0.00,,,0.00,meteohub,2013-02-20 09:45:00,
2013-02-20 04:50:00,35.1,28.2,29.64,NW,322,4.0,19.0,76,0.00,,,0.00,meteohub,2013-02-20 09:50:00,
2013-02-20 04:55:00,34.9,28.0,29.65,NNW,338,8.0,19.0,76,0.00,,,0.00,meteohub,2013-02-20 09:55:00,
2013-02-20 05:00:00,34.9,27.7,29.65,NW,325,12.0,19.0,75,0.00,,,0.00,meteohub,2013-02-20 10:00:00,
2013-02-20 05:05:00,34.7,27.7,29.65,West,278,8.0,23.0,75,0.00,,,0.00,meteohub,2013-02-20 10:05:00,
2013-02-20 05:11:00,34.5,27.7,29.65,WNW,284,7.0,23.0,76,0.00,,,0.00,meteohub,2013-02-20 10:11:00,
2013-02-20 05:16:00,34.5,27.5,29.65,WNW,298,10.0,23.0,75,0.00,,,0.00,meteohub,2013-02-20 10:16:00,
2013-02-20 05:21:00,34.5,27.5,29.65,NW,312,16.0,20.0,75,0.00,,,0.00,meteohub,2013-02-20 10:21:00,
2013-02-20 05:26:00,34.3,27.3,29.65,NW,318,14.0,19.0,75,0.00,,,0.00,meteohub,2013-02-20 10:26:00,
2013-02-20 05:31:00,34.3,27.3,29.65,WNW,290,8.0,19.0,75,0.00,,,0.00,meteohub,2013-02-20 10:31:00,
2013-02-20 05:36:00,34.2,27.3,29.65,WNW,294,12.0,19.0,76,0.00,,,0.00,meteohub,2013-02-20 10:36:00,
2013-02-20 05:41:00,34.2,27.3,29.65,NNW,328,7.0,17.0,76,0.00,,,0.00,meteohub,2013-02-20 10:41:00,
2013-02-20 05:46:00,34.2,27.3,29.66,WNW,300,9.0,17.0,76,0.00,,,0.00,meteohub,2013-02-20 10:46:00,
2013-02-20 05:51:00,34.0,27.1,29.66,NW,314,11.0,17.0,76,0.00,,,0.00,meteohub,2013-02-20 10:51:00,
2013-02-20 05:56:00,34.0,27.1,29.66,WNW,286,3.0,17.0,76,0.00,,,0.00,meteohub,2013-02-20 10:56:00,
2013-02-20 06:01:00,33.8,27.3,29.67,NW,316,5.0,17.0,77,0.00,,,0.00,meteohub,2013-02-20 11:01:00,
2013-02-20 06:06:00,33.8,27.3,29.67,WNW,284,4.0,16.0,77,0.00,,,0.00,meteohub,2013-02-20 11:06:00,
2013-02-20 06:11:00,33.8,27.3,29.67,WNW,286,5.0,15.0,77,0.00,,,0.00,meteohub,2013-02-20 11:11:00,
2013-02-20 06:16:00,33.8,27.3,29.68,WNW,287,6.0,14.0,77,0.00,,,0.00,meteohub,2013-02-20 11:16:00,
2013-02-20 06:21:00,33.6,27.5,29.68,West,274,2.0,15.0,78,0.00,,,0.00,meteohub,2013-02-20 11:21:00,
2013-02-20 06:26:00,33.6,27.5,29.68,WNW,290,7.0,15.0,78,0.00,,,0.00,meteohub,2013-02-20 11:26:00,
2013-02-20 06:31:00,33.6,27.5,29.68,WNW,284,4.0,15.0,78,0.00,,,0.00,meteohub,2013-02-20 11:31:00,
2013-02-20 06:36:00,33.6,27.5,29.68,West,276,4.0,13.0,78,0.00,,,0.00,meteohub,2013-02-20 11:36:00,
2013-02-20 06:41:00,33.6,27.5,29.69,WNW,294,6.0,13.0,78,0.00,,,0.00,meteohub,2013-02-20 11:41:00,
2013-02-20 06:46:00,33.6,27.1,29.69,NW,304,7.0,10.0,77,0.00,,,0.00,meteohub,2013-02-20 11:46:00,
2013-02-20 06:51:00,33.6,27.1,29.69,WNW,291,5.0,10.0,77,0.00,,,0.00,meteohub,2013-02-20 11:51:00,
2013-02-20 06:56:00,33.6,26.8,29.70,West,281,12.0,12.0,76,0.00,,,0.00,meteohub,2013-02-20 11:56:00,
2013-02-20 07:01:00,33.6,26.8,29.70,WNW,293,14.0,18.0,76,0.00,,,0.00,meteohub,2013-02-20 12:01:00,
2013-02-20 07:06:00,33.6,26.6,29.70,West,277,6.0,18.0,75,0.00,,,0.00,meteohub,2013-02-20 12:06:00,
2013-02-20 07:11:00,33.6,26.2,29.70,West,278,7.0,15.0,74,0.00,,,0.00,meteohub,2013-02-20 12:11:00,
2013-02-20 07:16:00,33.4,25.7,29.71,WNW,302,5.0,15.0,73,0.00,,,0.00,meteohub,2013-02-20 12:16:00,
2013-02-20 07:21:00,33.4,25.7,29.71,NNW,342,3.0,13.0,73,0.00,,,0.00,meteohub,2013-02-20 12:21:00,
2013-02-20 07:26:00,33.3,25.2,29.71,West,280,6.0,15.0,72,0.00,,,0.00,meteohub,2013-02-20 12:26:00,
2013-02-20 07:31:00,33.3,23.9,29.72,NW,305,18.0,18.0,68,0.00,,,0.00,meteohub,2013-02-20 12:31:00,
2013-02-20 07:36:00,33.1,23.0,29.71,WNW,284,14.0,23.0,66,0.00,,,0.00,meteohub,2013-02-20 12:36:00,
2013-02-20 07:41:00,33.1,23.0,29.71,WNW,283,9.0,23.0,66,0.00,,,0.00,meteohub,2013-02-20 12:41:00,
2013-02-20 07:46:00,33.1,23.4,29.72,WNW,288,9.0,23.0,67,0.00,,,0.00,meteohub,2013-02-20 12:46:00,
2013-02-20 07:51:00,32.9,23.2,29.72,NW,320,6.0,23.0,67,0.00,,,0.00,meteohub,2013-02-20 12:51:00,
2013-02-20 07:56:00,32.9,23.2,29.72,NW,308,11.0,23.0,67,0.00,,,0.00,meteohub,2013-02-20 12:56:00,
2013-02-20 08:01:00,32.9,23.2,29.73,WSW,239,6.0,19.0,67,0.00,,,0.00,meteohub,2013-02-20 13:01:00,
2013-02-20 08:06:00,32.9,23.2,29.73,WNW,283,4.0,19.0,67,0.00,,,0.00,meteohub,2013-02-20 13:06:00,
2013-02-20 08:11:00,32.7,23.0,29.73,WNW,300,8.0,17.0,67,0.00,,,0.00,meteohub,2013-02-20 13:11:00,
2013-02-20 08:16:00,32.7,23.4,29.73,WNW,293,7.0,17.0,68,0.00,,,0.00,meteohub,2013-02-20 13:16:00,
2013-02-20 08:21:00,32.7,23.0,29.73,NW,304,13.0,19.0,67,0.00,,,0.00,meteohub,2013-02-20 13:21:00,
2013-02-20 08:26:00,32.7,23.0,29.74,WNW,286,13.0,20.0,67,0.00,,,0.00,meteohub,2013-02-20 13:26:00,
2013-02-20 08:31:00,32.5,22.8,29.73,WNW,300,5.0,20.0,67,0.00,,,0.00,meteohub,2013-02-20 13:31:00,
2013-02-20 08:36:00,32.5,22.8,29.73,WNW,297,6.0,20.0,67,0.00,,,0.00,meteohub,2013-02-20 13:36:00,
2013-02-20 08:41:00,32.5,23.2,29.73,WNW,297,7.0,20.0,68,0.00,,,0.00,meteohub,2013-02-20 13:41:00,
2013-02-20 08:47:00,32.5,22.8,29.73,WNW,295,10.0,16.0,67,0.00,,,0.00,meteohub,2013-02-20 13:47:00,
2013-02-20 08:52:00,32.5,22.8,29.73,West,281,5.0,19.0,67,0.00,,,0.00,meteohub,2013-02-20 13:52:00,
2013-02-20 08:57:00,32.7,22.6,29.73,NW,305,13.0,19.0,66,0.00,,,0.00,meteohub,2013-02-20 13:57:00,
2013-02-20 09:02:00,33.1,22.6,29.73,WNW,298,11.0,19.0,65,0.00,,,0.00,meteohub,2013-02-20 14:02:00,
2013-02-20 09:07:00,33.3,22.5,29.73,WNW,283,13.0,20.0,64,0.00,,,0.00,meteohub,2013-02-20 14:07:00,
2013-02-20 09:12:00,33.3,21.7,29.73,WNW,302,15.0,21.0,62,0.00,,,0.00,meteohub,2013-02-20 14:12:00,
2013-02-20 09:17:00,33.4,21.4,29.73,NNW,337,13.0,21.0,61,0.00,,,0.00,meteohub,2013-02-20 14:17:00,
2013-02-20 09:22:00,33.6,21.6,29.73,WNW,291,17.0,21.0,61,0.00,,,0.00,meteohub,2013-02-20 14:22:00,
2013-02-20 09:27:00,34.0,20.8,29.73,West,280,8.0,21.0,58,0.00,,,0.00,meteohub,2013-02-20 14:27:00,
2013-02-20 09:32:00,33.8,18.9,29.73,NW,323,12.0,24.0,54,0.00,,,0.00,meteohub,2013-02-20 14:32:00,
2013-02-20 09:37:00,33.4,17.8,29.73,NW,322,9.0,25.0,52,0.00,,,0.00,meteohub,2013-02-20 14:37:00,
2013-02-20 09:42:00,33.6,17.8,29.73,WNW,302,15.0,25.0,52,0.00,,,0.00,meteohub,2013-02-20 14:42:00,
2013-02-20 09:47:00,33.6,17.8,29.73,WNW,286,10.0,26.0,52,0.00,,,0.00,meteohub,2013-02-20 14:47:00,
2013-02-20 09:52:00,33.4,17.2,29.73,WNW,288,10.0,28.0,51,0.00,,,0.00,meteohub,2013-02-20 14:52:00,
2013-02-20 09:57:00,33.4,17.2,29.73,NW,318,8.0,28.0,51,0.00,,,0.00,meteohub,2013-02-20 14:57:00,
2013-02-20 10:02:00,33.6,17.4,29.73,West,273,13.0,28.0,51,0.00,,,0.00,meteohub,2013-02-20 15:02:00,
2013-02-20 10:07:00,33.6,17.4,29.73,West,274,18.0,23.0,51,0.00,,,0.00,meteohub,2013-02-20 15:07:00,
2013-02-20 10:12:00,33.6,17.4,29.74,West,259,19.0,25.0,51,0.00,,,0.00,meteohub,2013-02-20 15:12:00,
2013-02-20 10:17:00,33.4,15.8,29.74,WNW,295,15.0,30.0,48,0.00,,,0.00,meteohub,2013-02-20 15:17:00,
2013-02-20 10:22:00,33.4,16.3,29.73,NW,319,11.0,30.0,49,0.00,,,0.00,meteohub,2013-02-20 15:22:00,
2013-02-20 10:27:00,33.6,16.0,29.73,NW,304,11.0,30.0,48,0.00,,,0.00,meteohub,2013-02-20 15:27:00,
2013-02-20 10:32:00,33.6,16.5,29.73,NW,304,12.0,28.0,49,0.00,,,0.00,meteohub,2013-02-20 15:32:00,
2013-02-20 10:37:00,34.2,17.4,29.73,West,281,4.0,23.0,50,0.00,,,0.00,meteohub,2013-02-20 15:37:00,
2013-02-20 10:42:00,34.3,17.6,29.74,WNW,295,11.0,23.0,50,0.00,,,0.00,meteohub,2013-02-20 15:42:00,
2013-02-20 10:47:00,34.3,17.2,29.73,WNW,288,6.0,21.0,49,0.00,,,0.00,meteohub,2013-02-20 15:47:00,
2013-02-20 10:52:00,34.3,17.2,29.73,WNW,294,8.0,21.0,49,0.00,,,0.00,meteohub,2013-02-20 15:52:00,
2013-02-20 10:57:00,34.5,17.2,29.73,WSW,257,3.0,18.0,49,0.00,,,0.00,meteohub,2013-02-20 15:57:00,
2013-02-20 11:02:00,34.7,17.4,29.73,NW,318,5.0,21.0,49,0.00,,,0.00,meteohub,2013-02-20 16:02:00,
2013-02-20 11:07:00,34.7,16.5,29.73,WNW,287,20.0,21.0,47,0.00,,,0.00,meteohub,2013-02-20 16:07:00,
2013-02-20 11:12:00,34.3,15.6,29.73,NW,312,11.0,25.0,46,0.00,,,0.00,meteohub,2013-02-20 16:12:00,
2013-02-20 11:17:00,34.5,16.3,29.73,WNW,302,16.0,25.0,47,0.00,,,0.00,meteohub,2013-02-20 16:17:00,
2013-02-20 11:22:00,34.2,16.0,29.73,West,278,19.0,25.0,47,0.00,,,0.00,meteohub,2013-02-20 16:22:00,
2013-02-20 11:27:00,34.0,16.3,29.73,NW,312,11.0,23.0,48,0.00,,,0.00,meteohub,2013-02-20 16:27:00,
2013-02-20 11:31:00,33.8,16.2,29.73,WNW,287,14.0,23.0,48,0.00,,,0.00,meteohub,2013-02-20 16:31:00,
2013-02-20 11:37:00,33.6,16.9,29.73,West,266,10.0,23.0,50,0.00,,,0.00,meteohub,2013-02-20 16:37:00,
2013-02-20 11:42:00,33.6,15.6,29.73,WNW,287,12.0,20.0,47,0.00,,,0.00,meteohub,2013-02-20 16:42:00,
2013-02-20 11:47:00,33.6,16.0,29.73,WNW,298,18.0,20.0,48,0.00,,,0.00,meteohub,2013-02-20 16:47:00,
2013-02-20 11:52:00,33.6,16.5,29.73,West,266,9.0,20.0,49,0.00,,,0.00,meteohub,2013-02-20 16:52:00,
2013-02-20 11:57:00,34.2,16.5,29.72,West,265,11.0,20.0,48,0.00,,,0.00,meteohub,2013-02-20 16:57:00,
2013-02-20 12:02:00,34.3,16.2,29.72,WNW,298,12.0,20.0,47,0.00,,,0.00,meteohub,2013-02-20 17:02:00,
2013-02-20 12:07:00,34.9,15.6,29.72,West,276,10.0,18.0,45,0.00,,,0.00,meteohub,2013-02-20 17:07:00,
2013-02-20 12:12:00,34.5,15.8,29.71,WNW,298,9.0,21.0,46,0.00,,,0.00,meteohub,2013-02-20 17:12:00,
2013-02-20 12:17:00,34.9,15.6,29.71,WNW,293,15.0,22.0,45,0.00,,,0.00,meteohub,2013-02-20 17:17:00,
2013-02-20 12:22:00,34.9,16.2,29.71,WNW,295,16.0,22.0,46,0.00,,,0.00,meteohub,2013-02-20 17:22:00,
2013-02-20 12:27:00,34.5,15.4,29.70,WNW,287,10.0,24.0,45,0.00,,,0.00,meteohub,2013-02-20 17:27:00,
2013-02-20 12:32:00,34.7,16.0,29.70,WNW,289,15.0,24.0,46,0.00,,,0.00,meteohub,2013-02-20 17:32:00,
2013-02-20 12:37:00,34.9,15.3,29.70,West,281,9.0,24.0,44,0.00,,,0.00,meteohub,2013-02-20 17:37:00,
2013-02-20 12:42:00,34.9,16.2,29.70,WNW,300,12.0,24.0,46,0.00,,,0.00,meteohub,2013-02-20 17:42:00,
2013-02-20 12:47:00,34.5,15.4,29.70,WNW,291,12.0,24.0,45,0.00,,,0.00,meteohub,2013-02-20 17:47:00,
2013-02-20 12:52:00,34.3,15.3,29.70,West,277,10.0,25.0,45,0.00,,,0.00,meteohub,2013-02-20 17:52:00,
2013-02-20 12:57:00,34.5,14.4,29.70,WNW,291,17.0,25.0,43,0.00,,,0.00,meteohub,2013-02-20 17:57:00,
2013-02-20 13:02:00,34.5,15.4,29.70,SSW,212,6.0,24.0,45,0.00,,,0.00,meteohub,2013-02-20 18:02:00,
2013-02-20 13:07:00,34.5,14.4,29.70,WNW,289,12.0,22.0,43,0.00,,,0.00,meteohub,2013-02-20 18:07:00,
2013-02-20 13:12:00,34.5,14.4,29.69,West,262,9.0,25.0,43,0.00,,,0.00,meteohub,2013-02-20 18:12:00,
2013-02-20 13:17:00,34.7,15.1,29.69,WSW,245,7.0,27.0,44,0.00,,,0.00,meteohub,2013-02-20 18:17:00,
2013-02-20 13:22:00,34.7,14.5,29.69,West,278,9.0,27.0,43,0.00,,,0.00,meteohub,2013-02-20 18:22:00,
2013-02-20 13:27:00,34.7,15.1,29.69,WSW,255,9.0,27.0,44,0.00,,,0.00,meteohub,2013-02-20 18:27:00,
2013-02-20 13:32:00,34.9,15.3,29.69,WNW,296,7.0,24.0,44,0.00,,,0.00,meteohub,2013-02-20 18:32:00,
2013-02-20 13:37:00,35.2,15.4,29.69,WNW,291,13.0,23.0,44,0.00,,,0.00,meteohub,2013-02-20 18:37:00,
2013-02-20 13:42:00,35.4,15.6,29.69,WNW,288,11.0,23.0,44,0.00,,,0.00,meteohub,2013-02-20 18:42:00,
2013-02-20 13:47:00,35.2,14.4,29.69,NW,308,20.0,23.0,42,0.00,,,0.00,meteohub,2013-02-20 18:47:00,
2013-02-20 13:52:00,34.9,15.3,29.70,NW,310,9.0,23.0,44,0.00,,,0.00,meteohub,2013-02-20 18:52:00,
2013-02-20 13:57:00,34.3,13.6,29.70,WNW,295,21.0,23.0,42,0.00,,,0.00,meteohub,2013-02-20 18:57:00,
2013-02-20 14:02:00,34.0,14.4,29.70,WNW,284,11.0,24.0,44,0.00,,,0.00,meteohub,2013-02-20 19:02:00,
2013-02-20 14:07:00,33.8,14.2,29.70,West,281,8.0,25.0,44,0.00,,,0.00,meteohub,2013-02-20 19:07:00,
2013-02-20 14:12:00,34.0,14.9,29.70,NW,325,10.0,25.0,45,0.00,,,0.00,meteohub,2013-02-20 19:12:00,
2013-02-20 14:17:00,33.6,14.0,29.70,NW,305,11.0,25.0,44,0.00,,,0.00,meteohub,2013-02-20 19:17:00,
2013-02-20 14:22:00,33.6,14.5,29.70,WNW,291,20.0,23.0,45,0.00,,,0.00,meteohub,2013-02-20 19:22:00,
2013-02-20 14:27:00,33.4,14.9,29.70,NW,308,7.0,25.0,46,0.00,,,0.00,meteohub,2013-02-20 19:27:00,
2013-02-20 14:32:00,33.4,14.4,29.71,WNW,290,11.0,25.0,45,0.00,,,0.00,meteohub,2013-02-20 19:32:00,
2013-02-20 14:37:00,34.0,14.9,29.71,WNW,302,7.0,25.0,45,0.00,,,0.00,meteohub,2013-02-20 19:37:00,
2013-02-20 14:42:00,34.0,14.4,29.71,WNW,294,13.0,22.0,44,0.00,,,0.00,meteohub,2013-02-20 19:42:00,
2013-02-20 14:47:00,33.4,13.8,29.71,WNW,292,13.0,23.0,44,0.00,,,0.00,meteohub,2013-02-20 19:47:00,
2013-02-20 14:52:00,33.3,14.2,29.71,West,278,9.0,23.0,45,0.00,,,0.00,meteohub,2013-02-20 19:52:00,
2013-02-20 14:57:00,33.1,13.5,29.71,West,281,13.0,24.0,44,0.00,,,0.00,meteohub,2013-02-20 19:57:00,
2013-02-20 15:02:00,33.3,14.2,29.72,WNW,294,16.0,24.0,45,0.00,,,0.00,meteohub,2013-02-20 20:02:00,
2013-02-20 15:07:00,33.1,14.0,29.72,NNW,328,8.0,24.0,45,0.00,,,0.00,meteohub,2013-02-20 20:07:00,
2013-02-20 15:12:00,33.1,14.5,29.72,West,264,3.0,20.0,46,0.00,,,0.00,meteohub,2013-02-20 20:12:00,
2013-02-20 15:17:00,33.1,15.1,29.72,WNW,300,13.0,20.0,47,0.00,,,0.00,meteohub,2013-02-20 20:17:00,
2013-02-20 15:22:00,32.9,14.9,29.72,WNW,293,16.0,20.0,47,0.00,,,0.00,meteohub,2013-02-20 20:22:00,
2013-02-20 15:27:00,32.7,14.7,29.72,West,281,15.0,20.0,47,0.00,,,0.00,meteohub,2013-02-20 20:27:00,
2013-02-20 15:32:00,32.7,14.2,29.72,WNW,297,8.0,20.0,46,0.00,,,0.00,meteohub,2013-02-20 20:32:00,
2013-02-20 15:37:00,32.7,14.7,29.73,West,266,14.0,21.0,47,0.00,,,0.00,meteohub,2013-02-20 20:37:00,
2013-02-20 15:42:00,32.7,14.7,29.72,NW,308,15.0,21.0,47,0.00,,,0.00,meteohub,2013-02-20 20:42:00,
2013-02-20 15:47:00,32.7,15.3,29.73,WNW,298,5.0,20.0,48,0.00,,,0.00,meteohub,2013-02-20 20:47:00,
2013-02-20 15:52:00,32.5,14.5,29.73,WNW,287,15.0,27.0,47,0.00,,,0.00,meteohub,2013-02-20 20:52:00,
2013-02-20 15:57:00,32.4,15.3,29.73,WNW,288,13.0,27.0,49,0.00,,,0.00,meteohub,2013-02-20 20:57:00,
2013-02-20 16:02:00,32.2,15.1,29.73,WNW,284,9.0,27.0,49,0.00,,,0.00,meteohub,2013-02-20 21:02:00,
2013-02-20 16:07:00,32.2,16.2,29.74,West,280,13.0,24.0,51,0.00,,,0.00,meteohub,2013-02-20 21:07:00,
2013-02-20 16:12:00,31.8,16.7,29.74,NNW,328,9.0,20.0,53,0.00,,,0.00,meteohub,2013-02-20 21:12:00,
2013-02-20 16:17:00,31.8,16.2,29.74,NW,324,7.0,21.0,52,0.00,,,0.00,meteohub,2013-02-20 21:17:00,
2013-02-20 16:22:00,31.6,16.5,29.74,NW,305,9.0,24.0,53,0.00,,,0.00,meteohub,2013-02-20 21:22:00,
2013-02-20 16:27:00,31.5,16.3,29.74,West,269,9.0,24.0,53,0.00,,,0.00,meteohub,2013-02-20 21:27:00,
2013-02-20 16:32:00,31.3,16.5,29.74,WNW,297,9.0,24.0,54,0.00,,,0.00,meteohub,2013-02-20 21:32:00,
2013-02-20 16:37:00,31.3,16.5,29.75,WNW,290,6.0,15.0,54,0.00,,,0.00,meteohub,2013-02-20 21:37:00,
2013-02-20 16:42:00,31.3,17.1,29.75,NW,324,11.0,14.0,55,0.00,,,0.00,meteohub,2013-02-20 21:42:00,
2013-02-20 16:47:00,30.9,17.4,29.75,WNW,291,5.0,19.0,57,0.00,,,0.00,meteohub,2013-02-20 21:47:00,
2013-02-20 16:52:00,30.7,16.9,29.75,NW,308,7.0,19.0,56,0.00,,,0.00,meteohub,2013-02-20 21:52:00,
2013-02-20 16:57:00,30.7,16.5,29.75,NW,324,10.0,20.0,55,0.00,,,0.00,meteohub,2013-02-20 21:57:00,
2013-02-20 17:02:00,30.7,16.0,29.76,NNW,328,6.0,20.0,54,0.00,,,0.00,meteohub,2013-02-20 22:02:00,
2013-02-20 17:07:00,30.7,15.6,29.76,WNW,288,10.0,19.0,53,0.00,,,0.00,meteohub,2013-02-20 22:07:00,
2013-02-20 17:12:00,30.6,15.4,29.76,WNW,302,10.0,26.0,53,0.00,,,0.00,meteohub,2013-02-20 22:12:00,
2013-02-20 17:17:00,30.6,15.4,29.76,WNW,295,8.0,26.0,53,0.00,,,0.00,meteohub,2013-02-20 22:17:00,
2013-02-20 17:22:00,30.4,15.3,29.76,West,269,11.0,26.0,53,0.00,,,0.00,meteohub,2013-02-20 22:22:00,
2013-02-20 17:27:00,30.4,15.8,29.76,WNW,300,3.0,18.0,54,0.00,,,0.00,meteohub,2013-02-20 22:27:00,
2013-02-20 17:32:00,30.4,15.8,29.76,WNW,287,10.0,18.0,54,0.00,,,0.00,meteohub,2013-02-20 22:32:00,
2013-02-20 17:37:00,30.2,15.6,29.77,WNW,283,11.0,18.0,54,0.00,,,0.00,meteohub,2013-02-20 22:37:00,
2013-02-20 17:40:00,30.0,14.9,29.77,WNW,285,20.0,20.0,53,0.00,,,0.00,meteohub,2013-02-20 22:40:00,
2013-02-20 17:42:00,30.0,14.5,29.77,NNW,340,10.0,22.0,52,0.00,,,0.00,meteohub,2013-02-20 22:42:00,
2013-02-20 17:52:00,29.8,14.4,29.77,WNW,291,11.0,26.0,52,0.00,,,0.00,meteohub,2013-02-20 22:52:00,
2013-02-20 17:57:00,29.8,14.4,29.77,WNW,288,11.0,26.0,52,0.00,,,0.00,meteohub,2013-02-20 22:57:00,
2013-02-20 18:02:00,29.8,14.4,29.78,WNW,294,8.0,20.0,52,0.00,,,0.00,meteohub,2013-02-20 23:02:00,
2013-02-20 18:07:00,29.7,14.5,29.78,NW,304,11.0,20.0,53,0.00,,,0.00,meteohub,2013-02-20 23:07:00,
2013-02-20 18:12:00,29.7,14.2,29.79,WNW,300,12.0,17.0,52,0.00,,,0.00,meteohub,2013-02-20 23:12:00,
2013-02-20 18:17:00,29.7,14.5,29.79,NW,319,6.0,20.0,53,0.00,,,0.00,meteohub,2013-02-20 23:17:00,
2013-02-20 18:22:00,29.5,14.5,29.79,West,271,4.0,20.0,53,0.00,,,0.00,meteohub,2013-02-20 23:22:00,
2013-02-20 18:27:00,29.5,14.0,29.79,WNW,298,14.0,20.0,52,0.00,,,0.00,meteohub,2013-02-20 23:27:00,
2013-02-20 18:32:00,29.5,14.0,29.79,WNW,300,17.0,17.0,52,0.00,,,0.00,meteohub,2013-02-20 23:32:00,
2013-02-20 18:37:00,29.5,14.0,29.79,NW,322,8.0,17.0,52,0.00,,,0.00,meteohub,2013-02-20 23:37:00,
2013-02-20 18:42:00,29.5,14.0,29.79,WNW,287,6.0,17.0,52,0.00,,,0.00,meteohub,2013-02-20 23:42:00,
2013-02-20 18:47:00,29.5,13.6,29.79,NW,316,11.0,18.0,51,0.00,,,0.00,meteohub,2013-02-20 23:47:00,
2013-02-20 18:52:00,29.5,13.6,29.79,WNW,288,6.0,18.0,51,0.00,,,0.00,meteohub,2013-02-20 23:52:00,
2013-02-20 18:57:00,29.3,13.5,29.80,WNW,288,8.0,18.0,51,0.00,,,0.00,meteohub,2013-02-20 23:57:00,
2013-02-20 19:02:00,29.1,13.6,29.79,WNW,290,5.0,18.0,52,0.00,,,0.00,meteohub,2013-02-21 00:02:00,
2013-02-20 19:07:00,29.1,14.2,29.79,WNW,284,1.0,17.0,53,0.00,,,0.00,meteohub,2013-02-21 00:07:00,
2013-02-20 19:12:00,28.9,14.0,29.80,WNW,287,6.0,11.0,53,0.00,,,0.00,meteohub,2013-02-21 00:12:00,
2013-02-20 19:17:00,28.9,13.1,29.80,West,273,7.0,11.0,51,0.00,,,0.00,meteohub,2013-02-21 00:17:00,
2013-02-20 19:22:00,29.1,12.7,29.80,NW,305,10.0,15.0,50,0.00,,,0.00,meteohub,2013-02-21 00:22:00,
2013-02-20 19:27:00,28.9,12.2,29.80,West,281,10.0,15.0,49,0.00,,,0.00,meteohub,2013-02-21 00:27:00,
2013-02-20 19:32:00,28.9,12.2,29.80,West,278,9.0,17.0,49,0.00,,,0.00,meteohub,2013-02-21 00:32:00,
2013-02-20 19:37:00,28.9,12.2,29.80,WNW,288,10.0,23.0,49,0.00,,,0.00,meteohub,2013-02-21 00:37:00,
2013-02-20 19:42:00,28.8,11.5,29.80,WNW,287,18.0,23.0,48,0.00,,,0.00,meteohub,2013-02-21 00:42:00,
2013-02-20 19:47:00,28.6,12.4,29.80,WNW,302,13.0,23.0,50,0.00,,,0.00,meteohub,2013-02-21 00:47:00,
2013-02-20 19:52:00,28.6,11.8,29.81,NW,308,16.0,21.0,49,0.00,,,0.00,meteohub,2013-02-21 00:52:00,
2013-02-20 19:57:00,28.6,10.9,29.80,West,260,15.0,21.0,47,0.00,,,0.00,meteohub,2013-02-21 00:57:00,
2013-02-20 20:02:00,28.4,11.3,29.81,WNW,297,6.0,23.0,48,0.00,,,0.00,meteohub,2013-02-21 01:02:00,
2013-02-20 20:07:00,28.4,10.8,29.81,NW,308,9.0,23.0,47,0.00,,,0.00,meteohub,2013-02-21 01:07:00,
2013-02-20 20:12:00,28.2,11.1,29.81,WNW,292,17.0,23.0,48,0.00,,,0.00,meteohub,2013-02-21 01:12:00,
2013-02-20 20:17:00,28.2,10.6,29.81,WNW,300,7.0,20.0,47,0.00,,,0.00,meteohub,2013-02-21 01:17:00,
2013-02-20 20:22:00,28.2,10.6,29.81,NW,310,8.0,23.0,47,0.00,,,0.00,meteohub,2013-02-21 01:22:00,
2013-02-20 20:27:00,28.0,10.9,29.81,WNW,300,11.0,23.0,48,0.00,,,0.00,meteohub,2013-02-21 01:27:00,
2013-02-20 20:32:00,28.0,10.9,29.82,WNW,295,4.0,23.0,48,0.00,,,0.00,meteohub,2013-02-21 01:32:00,
2013-02-20 20:37:00,27.9,11.1,29.82,WNW,298,6.0,16.0,49,0.00,,,0.00,meteohub,2013-02-21 01:37:00,
2013-02-20 20:42:00,27.9,10.8,29.82,West,280,7.0,15.0,48,0.00,,,0.00,meteohub,2013-02-21 01:42:00,
2013-02-20 20:47:00,27.7,10.6,29.82,NW,314,11.0,18.0,48,0.00,,,0.00,meteohub,2013-02-21 01:47:00,
2013-02-20 20:52:00,27.7,10.6,29.82,WNW,293,10.0,18.0,48,0.00,,,0.00,meteohub,2013-02-21 01:52:00,
2013-02-20 20:57:00,27.7,10.9,29.83,West,274,6.0,18.0,49,0.00,,,0.00,meteohub,2013-02-21 01:57:00,
2013-02-20 21:02:00,27.7,10.6,29.83,WNW,291,7.0,15.0,48,0.00,,,0.00,meteohub,2013-02-21 02:02:00,
2013-02-20 21:07:00,27.7,10.9,29.83,WNW,292,15.0,16.0,49,0.00,,,0.00,meteohub,2013-02-21 02:07:00,
2013-02-20 21:12:00,27.5,10.8,29.83,WNW,301,18.0,23.0,49,0.00,,,0.00,meteohub,2013-02-21 02:12:00,
2013-02-20 21:17:00,27.5,11.3,29.83,WNW,302,13.0,30.0,50,0.00,,,0.00,meteohub,2013-02-21 02:17:00,
2013-02-20 21:22:00,27.5,11.3,29.83,WNW,287,9.0,30.0,50,0.00,,,0.00,meteohub,2013-02-21 02:22:00,
2013-02-20 21:28:00,27.3,11.7,29.83,WNW,296,10.0,30.0,51,0.00,,,0.00,meteohub,2013-02-21 02:28:00,
2013-02-20 21:33:00,27.1,11.8,29.83,WSW,246,4.0,30.0,52,0.00,,,0.00,meteohub,2013-02-21 02:33:00,
2013-02-20 21:38:00,27.1,11.5,29.83,WNW,295,12.0,30.0,51,0.00,,,0.00,meteohub,2013-02-21 02:38:00,
2013-02-20 21:43:00,27.1,11.8,29.83,NW,325,11.0,17.0,52,0.00,,,0.00,meteohub,2013-02-21 02:43:00,
2013-02-20 21:48:00,27.0,11.7,29.84,West,276,13.0,19.0,52,0.00,,,0.00,meteohub,2013-02-21 02:48:00,
2013-02-20 21:53:00,27.0,11.7,29.83,West,277,13.0,19.0,52,0.00,,,0.00,meteohub,2013-02-21 02:53:00,
2013-02-20 21:58:00,27.0,12.0,29.83,WNW,300,11.0,19.0,53,0.00,,,0.00,meteohub,2013-02-21 02:58:00,
2013-02-20 22:03:00,27.0,12.0,29.84,West,260,12.0,21.0,53,0.00,,,0.00,meteohub,2013-02-21 03:03:00,
2013-02-20 22:08:00,27.0,12.0,29.84,WNW,302,10.0,21.0,53,0.00,,,0.00,meteohub,2013-02-21 03:08:00,
2013-02-20 22:13:00,26.8,12.4,29.83,WNW,290,7.0,21.0,54,0.00,,,0.00,meteohub,2013-02-21 03:13:00,
2013-02-20 22:18:00,26.8,12.4,29.84,WNW,285,10.0,18.0,54,0.00,,,0.00,meteohub,2013-02-21 03:18:00,
2013-02-20 22:23:00,26.8,12.4,29.84,WNW,295,12.0,16.0,54,0.00,,,0.00,meteohub,2013-02-21 03:23:00,
2013-02-20 22:28:00,26.8,12.7,29.84,WNW,293,11.0,20.0,55,0.00,,,0.00,meteohub,2013-02-21 03:28:00,
2013-02-20 22:33:00,26.6,12.6,29.84,NW,305,11.0,21.0,55,0.00,,,0.00,meteohub,2013-02-21 03:33:00,
2013-02-20 22:38:00,26.6,12.6,29.84,WNW,295,17.0,21.0,55,0.00,,,0.00,meteohub,2013-02-21 03:38:00,
2013-02-20 22:43:00,26.6,12.6,29.84,WNW,300,8.0,22.0,55,0.00,,,0.00,meteohub,2013-02-21 03:43:00,
2013-02-20 22:48:00,26.6,13.1,29.84,WNW,291,11.0,22.0,56,0.00,,,0.00,meteohub,2013-02-21 03:48:00,
2013-02-20 22:53:00,26.6,13.1,29.85,WNW,301,11.0,22.0,56,0.00,,,0.00,meteohub,2013-02-21 03:53:00,
2013-02-20 22:58:00,26.8,13.1,29.84,WNW,300,13.0,23.0,56,0.00,,,0.00,meteohub,2013-02-21 03:58:00,
2013-02-20 23:03:00,26.8,13.1,29.85,WNW,298,10.0,27.0,56,0.00,,,0.00,meteohub,2013-02-21 04:03:00,
2013-02-20 23:08:00,26.8,13.6,29.85,NW,307,7.0,27.0,57,0.00,,,0.00,meteohub,2013-02-21 04:08:00,
2013-02-20 23:13:00,26.8,13.6,29.85,WNW,288,6.0,27.0,57,0.00,,,0.00,meteohub,2013-02-21 04:13:00,
2013-02-20 23:18:00,26.8,13.6,29.85,West,264,7.0,26.0,57,0.00,,,0.00,meteohub,2013-02-21 04:18:00,
2013-02-20 23:23:00,26.8,13.6,29.85,West,280,10.0,26.0,57,0.00,,,0.00,meteohub,2013-02-21 04:23:00,
2013-02-20 23:28:00,26.6,13.5,29.85,WNW,295,14.0,17.0,57,0.00,,,0.00,meteohub,2013-02-21 04:28:00,
2013-02-20 23:33:00,26.6,13.5,29.85,NW,305,6.0,19.0,57,0.00,,,0.00,meteohub,2013-02-21 04:33:00,
2013-02-20 23:38:00,26.4,13.3,29.86,NNW,338,8.0,19.0,57,0.00,,,0.00,meteohub,2013-02-21 04:38:00,
2013-02-20 23:44:00,26.4,13.3,29.85,WNW,300,5.0,19.0,57,0.00,,,0.00,meteohub,2013-02-21 04:44:00,
2013-02-20 23:49:00,26.4,13.3,29.86,West,273,5.0,19.0,57,0.00,,,0.00,meteohub,2013-02-21 04:49:00,
2013-02-20 23:54:00,26.2,13.5,29.86,NW,314,21.0,21.0,58,0.00,,,0.00,meteohub,2013-02-21 04:54:00,
2013-02-20 23:59:00,26.2,13.5,29.86,WNW,297,16.0,21.0,58,0.00,,,0.00,meteohub,2013-02-21 04:59:00,